Time;durP1;ratioP1;P1;durP2;ratioP2;P2;SDS_P1;SDS_P2;PMS_P1;PMS_P2;Temp;Humidity;BMP_temperature;BMP_pressure;BME280_temperature;BME280_humidity;BME280_pressure;Samples;Min_cycle;Max_cycle;Signal;HPM_P1;HPM_P2
2021/03/26 00:00:36;;;;;;;38.13;23.60;;;9.20;99.90;;;;;;5035911;28;20278;-57
2021/03/26 00:03:04;;;;;;;37.73;23.30;;;9.20;99.90;;;;;;5044547;28;20191;-59
2021/03/26 00:05:30;;;;;;;37.80;23.13;;;9.20;99.90;;;;;;5048167;28;20180;-55
2021/03/26 00:07:55;;;;;;;37.23;23.47;;;9.10;99.90;;;;;;5060935;28;20210;-56
2021/03/26 00:10:21;;;;;;;40.27;23.73;;;9.10;99.90;;;;;;5036010;28;20206;-59
2021/03/26 00:12:47;;;;;;;36.50;22.43;;;9.00;99.90;;;;;;5048901;28;20191;-50
2021/03/26 00:15:14;;;;;;;37.70;22.97;;;9.00;99.90;;;;;;5040058;28;20187;-57
2021/03/26 00:17:39;;;;;;;38.33;24.37;;;8.90;99.90;;;;;;5044526;28;20559;-50
2021/03/26 00:20:06;;;;;;;40.30;25.23;;;8.90;99.90;;;;;;5045928;28;20710;-60
2021/03/26 00:22:32;;;;;;;39.80;23.67;;;8.80;99.90;;;;;;5042854;28;20176;-56
2021/03/26 00:24:57;;;;;;;38.93;24.40;;;8.80;99.90;;;;;;5036255;28;20265;-49
2021/03/26 00:27:23;;;;;;;41.97;24.00;;;8.70;99.90;;;;;;5053661;28;20179;-54
2021/03/26 00:29:49;;;;;;;36.20;23.53;;;8.70;99.90;;;;;;5055975;28;20182;-49
2021/03/26 00:32:20;;;;;;;36.77;22.80;;;8.60;99.90;;;;;;5043984;28;20636;-59
2021/03/26 00:34:46;;;;;;;37.57;24.30;;;8.60;99.90;;;;;;5054074;28;20174;-56
2021/03/26 00:37:12;;;;;;;35.97;23.20;;;8.50;99.90;;;;;;5056462;28;20664;-57
2021/03/26 00:39:37;;;;;;;38.30;24.00;;;8.50;99.90;;;;;;5063274;28;20899;-53
2021/03/26 00:42:03;;;;;;;42.37;23.73;;;8.40;99.90;;;;;;5044630;28;20195;-52
2021/03/26 00:44:29;;;;;;;37.13;23.17;;;8.40;99.90;;;;;;5056460;28;20254;-56
2021/03/26 00:46:54;;;;;;;37.33;23.63;;;8.30;99.90;;;;;;5046558;28;20199;-55
2021/03/26 00:49:20;;;;;;;41.50;24.33;;;8.30;99.90;;;;;;5040665;28;20282;-56
2021/03/26 00:51:45;;;;;;;36.73;23.43;;;8.30;99.90;;;;;;5045222;28;20214;-51
2021/03/26 00:54:15;;;;;;;40.17;23.33;;;8.20;99.90;;;;;;5044288;28;20179;-55
2021/03/26 00:56:41;;;;;;;37.47;22.80;;;8.20;99.90;;;;;;5040541;28;21001;-56
2021/03/26 00:59:07;;;;;;;37.57;22.90;;;8.10;99.90;;;;;;5056205;28;20209;-58
2021/03/26 01:01:33;;;;;;;38.13;23.53;;;8.10;99.90;;;;;;5045053;28;20183;-52
2021/03/26 01:03:58;;;;;;;39.37;22.93;;;8.10;99.90;;;;;;5047892;28;20274;-57
2021/03/26 01:06:24;;;;;;;36.47;21.43;;;8.00;99.90;;;;;;5052923;28;20923;-52
2021/03/26 01:08:53;;;;;;;34.20;22.03;;;8.00;99.90;;;;;;5064040;28;20191;-54
2021/03/26 01:11:24;;;;;;;35.60;21.27;;;8.00;99.90;;;;;;5049945;28;20224;-57
2021/03/26 01:13:50;;;;;;;33.97;21.37;;;7.90;99.90;;;;;;5056320;28;20171;-49
2021/03/26 01:16:17;;;;;;;37.10;20.67;;;7.80;99.90;;;;;;5039286;28;20189;-58
2021/03/26 01:18:46;;;;;;;34.60;20.83;;;7.80;99.90;;;;;;5043576;28;20211;-56
2021/03/26 01:21:19;;;;;;;36.73;21.17;;;7.80;99.90;;;;;;5041721;28;20187;-57
2021/03/26 01:23:46;;;;;;;33.07;20.53;;;7.70;99.90;;;;;;5042794;28;20190;-56
2021/03/26 01:26:13;;;;;;;37.33;21.93;;;7.70;99.90;;;;;;5037436;28;20183;-57
2021/03/26 01:28:48;;;;;;;33.53;20.63;;;7.70;99.90;;;;;;5052937;28;20723;-52
2021/03/26 01:31:25;;;;;;;36.23;21.17;;;7.60;99.90;;;;;;5059315;28;20323;-54
2021/03/26 01:33:52;;;;;;;36.40;21.37;;;7.60;99.90;;;;;;5046242;28;20183;-51
2021/03/26 01:36:19;;;;;;;33.37;20.83;;;7.50;99.90;;;;;;5051949;28;20693;-58
2021/03/26 01:38:45;;;;;;;35.33;21.93;;;7.40;99.90;;;;;;5064213;28;20191;-58
2021/03/26 01:41:23;;;;;;;32.53;20.20;;;7.40;99.90;;;;;;5056058;28;20182;-60
2021/03/26 01:43:48;;;;;;;35.13;22.17;;;7.40;99.90;;;;;;5052257;28;20198;-52
2021/03/26 01:46:16;;;;;;;36.83;21.03;;;7.30;99.90;;;;;;5062975;28;20198;-60
2021/03/26 01:48:54;;;;;;;36.83;22.40;;;7.30;99.90;;;;;;5044516;28;20206;-58
2021/03/26 01:51:29;;;;;;;40.63;22.30;;;7.20;99.90;;;;;;5041840;28;20218;-58
2021/03/26 01:53:56;;;;;;;40.70;23.43;;;7.20;99.90;;;;;;5046545;28;20168;-60
2021/03/26 01:56:23;;;;;;;34.13;21.87;;;7.20;99.90;;;;;;5042851;28;20515;-57
2021/03/26 01:59:09;;;;;;;34.37;21.73;;;7.20;99.90;;;;;;5037147;28;20206;-57
2021/03/26 02:01:42;;;;;;;35.67;22.90;;;7.20;99.90;;;;;;5047505;28;20229;-55
2021/03/26 02:04:10;;;;;;;38.10;21.93;;;7.10;99.90;;;;;;5042336;28;20655;-57
2021/03/26 02:06:46;;;;;;;37.80;21.87;;;7.10;99.90;;;;;;5053339;28;20887;-53
2021/03/26 02:09:27;;;;;;;36.83;22.83;;;7.10;99.90;;;;;;5050141;28;20209;-60
2021/03/26 02:11:58;;;;;;;38.30;22.40;;;7.10;99.90;;;;;;5061217;28;20202;-57
2021/03/26 02:14:39;;;;;;;35.77;21.20;;;7.10;99.90;;;;;;5038615;28;20183;-52
2021/03/26 02:17:06;;;;;;;37.50;21.70;;;7.00;99.90;;;;;;5052284;28;20184;-60
2021/03/26 02:20:02;;;;;;;37.53;22.07;;;7.00;99.90;;;;;;5036868;28;20191;-54
2021/03/26 02:22:31;;;;;;;35.47;21.43;;;7.00;99.90;;;;;;5039412;28;20168;-57
2021/03/26 02:24:59;;;;;;;36.20;21.80;;;6.90;99.90;;;;;;5042846;28;20318;-59
2021/03/26 02:27:32;;;;;;;39.43;22.17;;;6.90;99.90;;;;;;5039953;28;20251;-56
2021/03/26 02:30:06;;;;;;;33.50;21.30;;;6.90;99.90;;;;;;5031984;28;20213;-54
2021/03/26 02:32:42;;;;;;;39.53;21.93;;;6.80;99.90;;;;;;5049857;28;20171;-52
2021/03/26 02:35:34;;;;;;;36.63;21.17;;;6.80;99.90;;;;;;5035961;28;20188;-56
2021/03/26 02:38:31;;;;;;;35.30;21.97;;;6.70;99.90;;;;;;5045000;28;20189;-59
2021/03/26 02:41:33;;;;;;;36.27;21.53;;;6.70;99.90;;;;;;5052340;28;20315;-57
2021/03/26 02:44:45;;;;;;;36.57;21.17;;;6.70;99.90;;;;;;5062460;28;20186;-51
2021/03/26 02:47:23;;;;;;;37.90;20.23;;;6.70;99.90;;;;;;5056199;28;20188;-56
2021/03/26 02:50:10;;;;;;;34.73;19.47;;;6.60;99.90;;;;;;5066882;28;20211;-55
2021/03/26 02:52:55;;;;;;;33.40;19.07;;;6.60;99.90;;;;;;5039920;28;20169;-59
2021/03/26 02:55:48;;;;;;;36.27;20.30;;;6.50;99.90;;;;;;5041842;28;20170;-57
2021/03/26 02:58:28;;;;;;;36.93;20.60;;;6.40;99.90;;;;;;5040842;28;20198;-58
2021/03/26 03:01:21;;;;;;;35.00;20.17;;;6.40;99.90;;;;;;5033557;28;20190;-60
2021/03/26 03:03:50;;;;;;;30.17;19.60;;;6.30;99.90;;;;;;5055493;28;20180;-60
2021/03/26 03:06:24;;;;;;;34.87;19.93;;;6.20;99.90;;;;;;5039135;28;20183;-57
2021/03/26 03:09:16;;;;;;;29.17;19.00;;;6.10;99.90;;;;;;5042697;28;20716;-58
2021/03/26 03:11:48;;;;;;;35.90;21.00;;;6.00;99.90;;;;;;5060640;28;20205;-60
2021/03/26 03:14:24;;;;;;;37.40;20.87;;;5.90;99.90;;;;;;5063003;28;20174;-57
2021/03/26 03:17:13;;;;;;;31.37;20.03;;;5.90;99.90;;;;;;5047198;28;20183;-60
2021/03/26 03:20:07;;;;;;;27.33;19.17;;;5.90;99.90;;;;;;5048999;28;20254;-54
2021/03/26 03:22:45;;;;;;;34.30;20.07;;;5.80;99.90;;;;;;5035610;28;20218;-59
2021/03/26 03:25:18;;;;;;;30.63;18.30;;;5.70;99.90;;;;;;5042153;28;20250;-58
2021/03/26 03:28:00;;;;;;;34.50;20.07;;;5.60;99.90;;;;;;5042613;28;20337;-58
2021/03/26 03:31:11;;;;;;;35.90;19.87;;;5.60;99.90;;;;;;5039415;28;20940;-60
2021/03/26 03:33:53;;;;;;;34.67;20.50;;;5.50;99.90;;;;;;5034816;28;20289;-60
2021/03/26 03:36:24;;;;;;;33.20;20.53;;;5.40;99.90;;;;;;5032321;28;20177;-58
2021/03/26 03:39:07;;;;;;;31.93;18.30;;;5.40;99.90;;;;;;5050737;28;20282;-59
2021/03/26 03:42:02;;;;;;;38.27;20.17;;;5.30;99.90;;;;;;5058970;28;20174;-58
2021/03/26 03:45:08;;;;;;;29.83;19.17;;;5.30;99.90;;;;;;5057509;28;20270;-56
2021/03/26 03:47:59;;;;;;;32.50;19.17;;;5.20;99.90;;;;;;5025339;28;20459;-57
2021/03/26 03:50:38;;;;;;;29.40;16.70;;;5.20;99.90;;;;;;5039126;28;20218;-57
2021/03/26 03:53:22;;;;;;;32.50;18.00;;;5.10;99.90;;;;;;5044910;28;20171;-55
2021/03/26 03:56:21;;;;;;;33.73;19.60;;;5.10;99.90;;;;;;5045308;28;20212;-59
2021/03/26 03:58:56;;;;;;;36.00;19.70;;;5.10;99.90;;;;;;5045371;28;20241;-56
2021/03/26 04:01:42;;;;;;;30.80;18.40;;;5.00;99.90;;;;;;5041570;28;20270;-56
2021/03/26 04:04:40;;;;;;;39.33;20.30;;;5.10;99.90;;;;;;5034537;28;20187;-55
2021/03/26 04:07:15;;;;;;;33.47;18.87;;;5.10;99.90;;;;;;4988129;28;20204;-56
2021/03/26 04:09:53;;;;;;;32.87;19.00;;;5.00;99.90;;;;;;5052541;28;20998;-59
2021/03/26 04:12:23;;;;;;;36.80;20.23;;;5.00;99.90;;;;;;5039264;28;20674;-58
2021/03/26 04:15:08;;;;;;;33.60;20.10;;;5.00;99.90;;;;;;5027123;28;20180;-49
2021/03/26 04:18:11;;;;;;;40.40;20.27;;;5.00;99.90;;;;;;5023862;28;20188;-51
2021/03/26 04:20:52;;;;;;;34.20;19.23;;;5.00;99.90;;;;;;5037427;28;20194;-51
2021/03/26 04:23:33;;;;;;;35.27;19.57;;;5.00;99.90;;;;;;5050350;28;20219;-55
2021/03/26 04:26:20;;;;;;;32.83;18.50;;;4.90;99.90;;;;;;5063454;28;20186;-58
2021/03/26 04:29:21;;;;;;;32.67;18.80;;;5.00;99.90;;;;;;5045333;28;20261;-58
2021/03/26 04:32:03;;;;;;;39.20;20.63;;;5.00;99.90;;;;;;5066314;28;20582;-57
2021/03/26 04:34:30;;;;;;;33.07;19.07;;;5.00;99.90;;;;;;5062488;28;20744;-60
2021/03/26 04:37:10;;;;;;;36.03;19.83;;;5.00;99.90;;;;;;5046373;28;20186;-59
2021/03/26 04:39:51;;;;;;;33.63;18.80;;;5.00;99.90;;;;;;5050487;28;20266;-59
2021/03/26 04:42:43;;;;;;;32.17;18.27;;;5.00;99.90;;;;;;5061909;28;20216;-58
2021/03/26 04:45:17;;;;;;;35.57;19.87;;;5.00;99.90;;;;;;5063964;28;20178;-58
2021/03/26 04:48:39;;;;;;;31.00;18.27;;;5.00;99.90;;;;;;5064665;28;20611;-54
2021/03/26 04:51:31;;;;;;;33.13;19.40;;;5.00;99.90;;;;;;5054485;28;20630;-54
2021/03/26 04:54:39;;;;;;;33.60;18.57;;;4.90;99.90;;;;;;5045266;28;20278;-57
2021/03/26 04:57:26;;;;;;;38.70;19.80;;;4.90;99.90;;;;;;5043073;28;20186;-58
2021/03/26 05:00:04;;;;;;;36.57;20.83;;;4.90;99.90;;;;;;5046461;28;20182;-60
2021/03/26 05:02:32;;;;;;;36.83;18.90;;;4.80;99.90;;;;;;5043610;28;20171;-61
2021/03/26 05:05:01;;;;;;;34.83;19.10;;;4.90;99.90;;;;;;5046373;28;20203;-59
2021/03/26 05:07:48;;;;;;;39.13;20.73;;;4.80;99.90;;;;;;5032407;28;20227;-56
2021/03/26 05:10:18;;;;;;;38.80;21.37;;;4.80;99.90;;;;;;5047831;28;20219;-58
2021/03/26 05:13:35;;;;;;;40.93;22.80;;;4.80;99.90;;;;;;5042498;28;20589;-59
2021/03/26 05:16:15;;;;;;;45.60;22.87;;;4.80;99.90;;;;;;5044648;28;20179;-60
2021/03/26 05:19:09;;;;;;;43.63;22.77;;;4.90;99.90;;;;;;5045148;28;20242;-56
2021/03/26 05:21:43;;;;;;;46.43;24.60;;;4.90;99.90;;;;;;5042577;28;20163;-57
2021/03/26 05:24:47;;;;;;;44.93;24.80;;;4.90;99.90;;;;;;5041870;28;20334;-61
2021/03/26 05:27:39;;;;;;;48.23;27.17;;;4.90;99.90;;;;;;5024900;28;20207;-60
2021/03/26 05:30:08;;;;;;;47.13;24.43;;;5.00;99.90;;;;;;5027772;28;20176;-58
2021/03/26 05:32:44;;;;;;;47.37;24.70;;;5.00;99.90;;;;;;5025009;28;20160;-60
2021/03/26 05:36:04;;;;;;;48.77;25.47;;;5.00;99.90;;;;;;5022375;28;20178;-61
2021/03/26 05:39:02;;;;;;;46.03;24.20;;;5.00;99.90;;;;;;5020724;28;20384;-61
2021/03/26 05:42:10;;;;;;;48.67;24.07;;;5.00;99.90;;;;;;5050547;28;20191;-61
2021/03/26 05:45:10;;;;;;;47.57;25.83;;;5.00;99.90;;;;;;5035483;28;20589;-61
2021/03/26 05:48:19;;;;;;;54.90;26.73;;;5.10;99.90;;;;;;5043624;28;20207;-61
2021/03/26 05:50:57;;;;;;;54.67;26.20;;;5.20;99.90;;;;;;5039859;28;20200;-58
2021/03/26 05:54:25;;;;;;;46.20;26.20;;;5.10;99.90;;;;;;5025578;28;20330;-58
2021/03/26 05:57:21;;;;;;;49.07;25.13;;;5.20;99.90;;;;;;5043906;28;20238;-59
2021/03/26 05:59:53;;;;;;;45.70;25.20;;;5.10;99.90;;;;;;5027561;28;20334;-59
2021/03/26 06:02:46;;;;;;;42.50;23.90;;;5.20;99.90;;;;;;5043998;28;20171;-59
2021/03/26 06:05:45;;;;;;;43.90;23.27;;;5.20;99.90;;;;;;5038295;28;20670;-58
2021/03/26 06:08:58;;;;;;;43.67;23.03;;;5.20;99.90;;;;;;5032424;28;20249;-59
2021/03/26 06:12:07;;;;;;;42.43;22.07;;;5.20;99.90;;;;;;5044383;28;20856;-53
2021/03/26 06:15:14;;;;;;;41.23;21.83;;;5.10;99.90;;;;;;5039182;28;20591;-56
2021/03/26 06:18:21;;;;;;;47.77;25.67;;;5.20;99.90;;;;;;5044217;28;20206;-55
2021/03/26 06:21:35;;;;;;;54.20;26.87;;;5.20;99.90;;;;;;5026093;28;20252;-58
2021/03/26 06:24:19;;;;;;;54.67;26.90;;;5.40;99.90;;;;;;5027743;28;20203;-58
2021/03/26 06:27:04;;;;;;;49.70;25.20;;;5.50;99.90;;;;;;5045062;28;20187;-58
2021/03/26 06:29:55;;;;;;;55.07;27.77;;;5.50;99.90;;;;;;5037633;28;20280;-53
2021/03/26 06:33:00;;;;;;;52.00;27.57;;;5.60;99.90;;;;;;5056136;28;20187;-58
2021/03/26 06:35:44;;;;;;;54.27;26.67;;;5.70;99.90;;;;;;5034562;28;20305;-53
2021/03/26 06:38:43;;;;;;;57.57;29.07;;;5.80;99.90;;;;;;5033178;28;20374;-51
2021/03/26 06:41:21;;;;;;;52.47;27.33;;;5.90;99.90;;;;;;5032110;28;20201;-57
2021/03/26 06:44:14;;;;;;;51.80;26.53;;;6.00;99.90;;;;;;5050193;28;20175;-58
2021/03/26 06:47:07;;;;;;;55.90;29.93;;;6.10;99.90;;;;;;5040811;28;20559;-55
2021/03/26 06:49:51;;;;;;;57.70;27.87;;;6.20;99.90;;;;;;5047181;28;20202;-57
2021/03/26 06:52:27;;;;;;;64.23;30.87;;;6.30;99.90;;;;;;5036808;28;20867;-57
2021/03/26 06:55:10;;;;;;;55.37;30.03;;;6.40;99.90;;;;;;5038396;28;20183;-57
2021/03/26 06:58:04;;;;;;;57.73;29.60;;;6.50;99.90;;;;;;5027930;28;20199;-55
2021/03/26 07:00:42;;;;;;;55.03;28.83;;;6.70;99.90;;;;;;5037580;28;20655;-57
2021/03/26 07:03:37;;;;;;;60.00;30.43;;;6.80;99.90;;;;;;5029830;28;20198;-60
2021/03/26 07:06:19;;;;;;;54.57;29.67;;;6.90;99.90;;;;;;5036132;28;20183;-59
2021/03/26 07:09:08;;;;;;;53.73;29.60;;;7.10;99.90;;;;;;5036654;28;20212;-56
2021/03/26 07:11:56;;;;;;;55.43;29.53;;;7.20;99.90;;;;;;5030189;28;20191;-52
2021/03/26 07:15:01;;;;;;;57.60;29.17;;;7.30;99.90;;;;;;5042815;28;20159;-57
2021/03/26 07:17:49;;;;;;;55.20;29.93;;;7.50;99.90;;;;;;5033291;28;20855;-56
2021/03/26 07:20:51;;;;;;;55.87;30.97;;;7.60;99.90;;;;;;5029971;28;20230;-56
2021/03/26 07:23:31;;;;;;;56.70;30.17;;;7.70;99.90;;;;;;5028744;28;20179;-56
2021/03/26 07:26:09;;;;;;;59.20;32.03;;;7.90;99.90;;;;;;5037615;28;20195;-60
2021/03/26 07:29:30;;;;;;;57.67;31.70;;;8.00;99.90;;;;;;5031099;28;20215;-58
2021/03/26 07:32:17;;;;;;;60.10;29.03;;;8.10;99.90;;;;;;5040491;28;20222;-59
2021/03/26 07:35:14;;;;;;;57.43;30.70;;;8.20;99.90;;;;;;5038783;28;20182;-58
2021/03/26 07:38:01;;;;;;;50.60;29.50;;;8.50;99.90;;;;;;5033247;28;20256;-59
2021/03/26 07:40:41;;;;;;;50.23;30.50;;;8.70;99.90;;;;;;5035106;28;20265;-57
2021/03/26 07:43:15;;;;;;;50.13;28.70;;;8.90;99.90;;;;;;5026457;28;20251;-60
2021/03/26 07:46:06;;;;;;;47.03;28.87;;;9.00;99.90;;;;;;5039586;28;20611;-58
2021/03/26 07:49:02;;;;;;;49.00;30.37;;;9.20;99.90;;;;;;5041743;28;20215;-57
2021/03/26 07:51:48;;;;;;;50.30;30.63;;;9.40;99.90;;;;;;5034052;28;20578;-59
2021/03/26 07:54:36;;;;;;;49.57;28.60;;;9.60;99.90;;;;;;5034717;28;20183;-51
2021/03/26 07:57:35;;;;;;;42.57;28.83;;;9.70;99.90;;;;;;5026796;28;20179;-54
2021/03/26 08:00:24;;;;;;;55.10;28.90;;;9.80;99.90;;;;;;5027281;28;20188;-55
2021/03/26 08:03:09;;;;;;;41.43;25.37;;;9.90;99.90;;;;;;5027886;28;20904;-49
2021/03/26 08:05:43;;;;;;;47.60;28.67;;;9.90;99.90;;;;;;5039102;28;20263;-57
2021/03/26 08:08:27;;;;;;;45.47;27.13;;;10.00;99.90;;;;;;5022116;28;20207;-51
2021/03/26 08:11:09;;;;;;;45.97;28.47;;;10.10;99.90;;;;;;5040225;28;20438;-55
2021/03/26 08:13:43;;;;;;;41.97;26.63;;;10.20;99.90;;;;;;5030726;28;20204;-50
2021/03/26 08:16:38;;;;;;;46.63;28.60;;;10.30;99.90;;;;;;5026543;28;20831;-55
2021/03/26 08:19:36;;;;;;;40.00;26.43;;;10.40;99.90;;;;;;5039150;28;20207;-56
2021/03/26 08:22:27;;;;;;;49.37;29.13;;;10.60;99.90;;;;;;5019053;28;20184;-53
2021/03/26 08:25:27;;;;;;;47.27;27.20;;;10.70;99.90;;;;;;5022583;28;20187;-55
2021/03/26 08:28:27;;;;;;;43.37;26.63;;;10.80;99.90;;;;;;5043079;28;20207;-54
2021/03/26 08:31:10;;;;;;;43.27;26.90;;;11.00;99.90;;;;;;5036355;28;20211;-53
2021/03/26 08:34:06;;;;;;;42.97;26.60;;;11.10;99.90;;;;;;5058024;28;20171;-56
2021/03/26 08:37:01;;;;;;;43.07;27.10;;;11.10;99.90;;;;;;5037389;28;20249;-52
2021/03/26 08:39:46;;;;;;;41.60;26.70;;;11.10;99.90;;;;;;5040002;28;20226;-49
2021/03/26 08:42:28;;;;;;;37.90;24.60;;;11.10;99.90;;;;;;5041950;28;20164;-55
2021/03/26 08:45:17;;;;;;;41.33;26.40;;;11.10;99.90;;;;;;5045386;28;20259;-56
2021/03/26 08:47:51;;;;;;;40.13;23.57;;;11.20;99.90;;;;;;5049945;28;20269;-51
2021/03/26 08:50:30;;;;;;;37.43;24.70;;;11.30;99.90;;;;;;5020919;28;20277;-53
2021/03/26 08:53:24;;;;;;;34.77;23.87;;;11.30;99.90;;;;;;5033691;28;20171;-57
2021/03/26 08:56:16;;;;;;;34.93;23.33;;;11.50;99.90;;;;;;5043102;28;20808;-56
2021/03/26 08:59:03;;;;;;;38.00;23.57;;;11.60;99.90;;;;;;5042466;28;20204;-53
2021/03/26 09:02:04;;;;;;;35.67;22.90;;;11.70;99.90;;;;;;5024457;28;20248;-56
2021/03/26 09:05:14;;;;;;;32.07;20.47;;;11.80;99.90;;;;;;5044233;28;20187;-53
2021/03/26 09:07:50;;;;;;;28.80;19.50;;;11.90;99.90;;;;;;5025705;28;20626;-55
2021/03/26 09:10:55;;;;;;;30.53;20.63;;;12.00;99.90;;;;;;5048121;28;20219;-57
2021/03/26 09:13:52;;;;;;;28.87;18.33;;;12.10;99.90;;;;;;5047706;28;20171;-57
2021/03/26 09:16:28;;;;;;;25.63;16.93;;;12.30;99.90;;;;;;5040600;28;20179;-55
2021/03/26 09:19:24;;;;;;;23.97;16.17;;;12.50;99.90;;;;;;5051267;28;20195;-54
2021/03/26 09:22:12;;;;;;;26.87;17.63;;;12.60;99.90;;;;;;5040052;28;20183;-53
2021/03/26 09:25:15;;;;;;;25.00;16.73;;;12.70;99.90;;;;;;5045319;28;20183;-56
2021/03/26 09:28:02;;;;;;;21.67;15.47;;;12.70;99.90;;;;;;5040535;28;20248;-56
2021/03/26 09:30:40;;;;;;;22.80;15.73;;;12.70;99.90;;;;;;5034120;28;20230;-54
2021/03/26 09:33:05;;;;;;;22.13;17.50;;;12.80;99.90;;;;;;5033688;28;20186;-52
2021/03/26 09:35:37;;;;;;;25.77;15.73;;;12.90;99.90;;;;;;5050602;28;20183;-56
2021/03/26 09:38:38;;;;;;;21.67;15.17;;;13.00;99.90;;;;;;5044152;28;20291;-54
2021/03/26 09:41:25;;;;;;;24.20;15.03;;;13.10;99.90;;;;;;5046150;28;20210;-54
2021/03/26 09:44:17;;;;;;;24.00;12.70;;;13.30;99.90;;;;;;5040972;28;20171;-56
2021/03/26 09:47:11;;;;;;;18.33;11.20;;;13.20;99.90;;;;;;5033344;28;20207;-54
2021/03/26 09:49:51;;;;;;;18.87;11.63;;;13.10;99.90;;;;;;5047467;28;20179;-55
2021/03/26 09:52:40;;;;;;;17.00;11.63;;;12.80;99.90;;;;;;5029259;28;20262;-54
2021/03/26 09:55:14;;;;;;;13.40;11.27;;;12.70;99.90;;;;;;5040260;28;20237;-50
2021/03/26 09:58:10;;;;;;;16.43;11.40;;;12.70;99.90;;;;;;5041359;28;20804;-57
2021/03/26 10:00:44;;;;;;;14.07;10.80;;;13.00;99.90;;;;;;5047819;28;20317;-57
2021/03/26 10:03:37;;;;;;;17.53;10.17;;;13.10;99.90;;;;;;5028885;28;20396;-52
2021/03/26 10:06:23;;;;;;;13.83;8.83;;;13.30;99.90;;;;;;5047272;28;20183;-51
2021/03/26 10:09:21;;;;;;;18.27;11.73;;;13.30;99.90;;;;;;5052001;28;20221;-53
2021/03/26 10:11:53;;;;;;;13.80;10.97;;;13.30;99.90;;;;;;5057504;28;20691;-55
2021/03/26 10:14:24;;;;;;;16.63;12.47;;;13.30;99.90;;;;;;5044167;28;20206;-52
2021/03/26 10:17:10;;;;;;;19.27;12.10;;;13.30;99.90;;;;;;5038122;28;20194;-52
2021/03/26 10:19:47;;;;;;;14.90;10.00;;;13.50;99.90;;;;;;5030114;28;20289;-51
2021/03/26 10:22:31;;;;;;;12.93;10.13;;;13.50;99.90;;;;;;5045186;28;20187;-52
2021/03/26 10:25:14;;;;;;;13.87;10.97;;;13.60;99.90;;;;;;5047310;28;20280;-57
2021/03/26 10:27:56;;;;;;;17.00;11.23;;;13.70;99.90;;;;;;5045499;28;20207;-56
2021/03/26 10:30:28;;;;;;;17.50;11.03;;;13.90;99.90;;;;;;5031143;28;20210;-53
2021/03/26 10:33:01;;;;;;;17.07;11.63;;;13.90;99.90;;;;;;5035335;28;20636;-57
2021/03/26 10:35:28;;;;;;;18.03;12.03;;;13.90;99.90;;;;;;5033367;28;20192;-55
2021/03/26 10:38:00;;;;;;;17.47;11.87;;;14.00;99.90;;;;;;5041672;28;20199;-57
2021/03/26 10:40:49;;;;;;;16.07;11.43;;;14.10;99.90;;;;;;5051110;28;20187;-54
2021/03/26 10:43:21;;;;;;;17.07;11.40;;;14.10;99.90;;;;;;5053076;28;20210;-52
2021/03/26 10:46:07;;;;;;;13.80;9.53;;;14.10;99.90;;;;;;5041061;28;20253;-56
2021/03/26 10:48:58;;;;;;;11.53;9.30;;;14.10;99.90;;;;;;5039355;28;20673;-53
2021/03/26 10:51:30;;;;;;;11.87;8.33;;;14.10;99.90;;;;;;5045873;28;20580;-57
2021/03/26 10:54:17;;;;;;;10.50;6.70;;;14.10;99.70;;;;;;5046525;28;20373;-53
2021/03/26 10:57:08;;;;;;;15.47;8.30;;;14.10;98.20;;;;;;5041511;28;20178;-57
2021/03/26 11:00:04;;;;;;;10.60;8.10;;;14.10;99.80;;;;;;5038611;28;20203;-53
2021/03/26 11:02:46;;;;;;;14.37;9.73;;;14.30;98.50;;;;;;5043965;28;20600;-54
2021/03/26 11:05:38;;;;;;;12.67;8.93;;;14.20;99.80;;;;;;5026775;28;22812;-50
2021/03/26 11:08:04;;;;;;;11.57;8.60;;;14.30;99.10;;;;;;5044026;28;20522;-49
2021/03/26 11:10:43;;;;;;;14.20;9.40;;;14.20;98.60;;;;;;5051470;28;20342;-50
2021/03/26 11:13:18;;;;;;;13.07;8.50;;;14.10;97.90;;;;;;5039918;28;20690;-50
2021/03/26 11:16:29;;;;;;;11.70;9.17;;;14.20;99.50;;;;;;5037879;28;20270;-55
2021/03/26 11:19:13;;;;;;;11.93;8.10;;;14.10;98.60;;;;;;5019759;28;20214;-51
2021/03/26 11:21:45;;;;;;;10.70;8.17;;;14.20;97.90;;;;;;5037949;28;20202;-56
2021/03/26 11:24:12;;;;;;;9.70;7.80;;;14.20;98.20;;;;;;5034382;28;20931;-51
2021/03/26 11:26:45;;;;;;;8.97;7.20;;;14.20;98.80;;;;;;5042217;28;20559;-56
2021/03/26 11:29:13;;;;;;;10.90;8.00;;;14.30;97.80;;;;;;5040741;28;20799;-56
2021/03/26 11:31:48;;;;;;;9.60;7.07;;;14.40;97.40;;;;;;5038458;28;20665;-56
2021/03/26 11:34:37;;;;;;;11.70;6.10;;;14.30;95.80;;;;;;5041996;28;20182;-50
2021/03/26 11:37:15;;;;;;;9.97;6.40;;;14.40;94.30;;;;;;5034475;28;20195;-50
2021/03/26 11:39:58;;;;;;;12.00;6.17;;;14.40;94.80;;;;;;5042323;28;20702;-55
2021/03/26 11:42:39;;;;;;;10.37;7.30;;;14.50;94.30;;;;;;5042116;28;20172;-49
2021/03/26 11:45:20;;;;;;;11.90;8.20;;;14.50;94.30;;;;;;5036318;28;20873;-53
2021/03/26 11:48:13;;;;;;;9.43;7.03;;;14.50;94.10;;;;;;5040588;28;20245;-57
2021/03/26 11:50:59;;;;;;;8.13;6.33;;;14.40;93.20;;;;;;5041398;28;20253;-57
2021/03/26 11:53:40;;;;;;;6.80;5.90;;;14.40;93.10;;;;;;5031074;28;20187;-53
2021/03/26 11:56:11;;;;;;;7.97;5.90;;;14.40;91.80;;;;;;5047297;28;20818;-54
2021/03/26 11:58:53;;;;;;;8.07;5.83;;;14.40;93.30;;;;;;5039329;28;20199;-56
2021/03/26 12:01:23;;;;;;;8.60;6.37;;;14.40;92.50;;;;;;5038899;28;20195;-52
2021/03/26 12:04:03;;;;;;;7.83;6.80;;;14.40;92.90;;;;;;5043694;28;20273;-55
2021/03/26 12:06:42;;;;;;;7.07;6.23;;;14.40;92.10;;;;;;5042285;28;20576;-50
2021/03/26 12:09:12;;;;;;;11.10;5.80;;;14.40;93.40;;;;;;5046559;28;20230;-57
2021/03/26 12:12:00;;;;;;;8.07;6.23;;;14.50;93.70;;;;;;5050235;28;20207;-54
2021/03/26 12:14:53;;;;;;;7.23;5.40;;;14.60;93.60;;;;;;5036249;28;20175;-57
2021/03/26 12:17:33;;;;;;;6.50;5.90;;;14.70;92.50;;;;;;5035980;28;20187;-56
2021/03/26 12:20:01;;;;;;;8.20;5.37;;;14.70;92.40;;;;;;5045374;28;20210;-52
2021/03/26 12:22:35;;;;;;;7.80;5.80;;;14.80;92.60;;;;;;5021632;28;20330;-52
2021/03/26 12:25:15;;;;;;;6.70;6.03;;;15.00;91.20;;;;;;5043752;28;20191;-57
2021/03/26 12:27:47;;;;;;;5.80;5.20;;;15.00;90.70;;;;;;5035116;28;20321;-57
2021/03/26 12:30:25;;;;;;;5.63;4.97;;;15.00;90.90;;;;;;5034377;28;20237;-55
2021/03/26 12:33:04;;;;;;;8.67;6.13;;;15.10;90.40;;;;;;5037563;28;20549;-55
2021/03/26 12:35:30;;;;;;;6.13;4.90;;;15.20;87.00;;;;;;5027616;28;20187;-55
2021/03/26 12:38:13;;;;;;;6.23;5.53;;;15.30;89.70;;;;;;5031640;28;20210;-49
2021/03/26 12:40:39;;;;;;;6.70;5.63;;;15.40;86.80;;;;;;5031220;28;20266;-56
2021/03/26 12:43:13;;;;;;;8.10;6.03;;;15.40;84.60;;;;;;5044541;28;20593;-53
2021/03/26 12:45:52;;;;;;;9.50;5.90;;;15.40;82.00;;;;;;5043592;28;20198;-49
2021/03/26 12:48:20;;;;;;;8.00;5.53;;;15.50;82.90;;;;;;5046976;28;20386;-51
2021/03/26 12:50:56;;;;;;;7.03;6.33;;;15.70;86.30;;;;;;5034948;28;20227;-46
2021/03/26 12:53:30;;;;;;;8.20;5.60;;;15.70;82.90;;;;;;5035703;28;20181;-52
2021/03/26 12:56:11;;;;;;;9.97;6.13;;;15.60;83.90;;;;;;5053605;28;20344;-48
2021/03/26 12:59:13;;;;;;;6.90;5.53;;;15.50;82.10;;;;;;5041697;28;20226;-48
2021/03/26 13:01:59;;;;;;;6.47;5.77;;;15.50;80.80;;;;;;5047310;28;20471;-47
2021/03/26 13:04:52;;;;;;;8.83;5.77;;;15.50;79.90;;;;;;5042806;28;20194;-48
2021/03/26 13:07:33;;;;;;;9.83;6.00;;;15.40;80.70;;;;;;5036508;28;20192;-49
2021/03/26 13:10:29;;;;;;;8.87;5.80;;;15.50;81.20;;;;;;5028538;28;20212;-46
2021/03/26 13:13:10;;;;;;;6.90;5.80;;;15.60;81.40;;;;;;5050514;28;20191;-48
2021/03/26 13:15:39;;;;;;;8.33;6.17;;;15.60;81.10;;;;;;5050635;28;20249;-48
2021/03/26 13:18:08;;;;;;;7.50;6.27;;;15.70;83.90;;;;;;5043692;28;20200;-50
2021/03/26 13:21:16;;;;;;;8.40;6.70;;;16.00;84.20;;;;;;5047432;28;20188;-47
2021/03/26 13:23:44;;;;;;;9.80;6.97;;;16.30;81.00;;;;;;5031670;28;20286;-49
2021/03/26 13:26:18;;;;;;;8.67;6.40;;;16.60;80.70;;;;;;5030307;28;20196;-48
2021/03/26 13:28:54;;;;;;;8.13;7.23;;;16.70;76.90;;;;;;5039162;28;20195;-48
2021/03/26 13:31:28;;;;;;;12.67;10.17;;;16.90;74.40;;;;;;5041445;28;20207;-51
2021/03/26 13:34:24;;;;;;;10.27;7.00;;;16.80;74.80;;;;;;5052308;28;20243;-49
2021/03/26 13:37:05;;;;;;;10.20;8.07;;;17.40;75.00;;;;;;5046290;28;20183;-47
2021/03/26 13:39:42;;;;;;;13.17;8.77;;;17.60;71.90;;;;;;5041380;28;20199;-52
2021/03/26 13:42:27;;;;;;;12.03;8.93;;;17.30;74.20;;;;;;5023560;28;20199;-51
2021/03/26 13:44:59;;;;;;;12.60;9.13;;;16.90;74.90;;;;;;5038737;28;20195;-50
2021/03/26 13:47:45;;;;;;;10.70;9.10;;;16.60;75.20;;;;;;5054980;28;20190;-47
2021/03/26 13:50:17;;;;;;;14.17;11.23;;;16.50;75.90;;;;;;5034873;28;20178;-46
2021/03/26 13:52:55;;;;;;;14.87;11.00;;;16.50;77.00;;;;;;5048330;28;20543;-48